Main page
METAR-TAF:

METAR-TAF

Airports :

Deauville – Normandie Airport

Deauville, France

latitude: 49-21-55N, longitude: 000-09-16E, elevation: 146 m

Current weather observation

The report was made 17 minutes ago, at 17:30 UTC
Wind 3 kt from variable directions
Temperature 8°C
Humidity 81%
Pressure 1017 hPa
Visibility 10 km or more
Broken clouds at a height of 3600 ft

METAR: LFRG 211730Z AUTO VRB03KT 9999 BKN036 08/05 Q1017 NOSIG

Time: 19:47 (17:47 UTC)

Forecast

The report was made 3 hours and 47 minutes ago, at 14:00 UTC
Forecast valid from 21 at 15 UTC to 21 at 24 UTC
Wind 10 kt from the North
Visibility 10 km or more
Scattered clouds at a height of 3000 ft
Becoming
from 21 at 19 UTC to 21 at 21 UTC
Wind 3 kt from variable directions

TAF: LFRG 211400Z 2115/2124 35010KT 9999 SCT030 BECMG 2119/2121 VRB03KT

Weather observations and forecasts of more than 4000 airports (METAR and TAF reports).

The available stations are represented by yellow and red dots on the map.

Hover mouse over dot to see the name of the station.

Then click to see weather observations and forecasts.

To change the map : click on the green buttons with a black cross to zoom in, on the green button with a dash to zoom out, or on the green arrows for adjacent maps.


METAR-TAF: